Time;durP1;ratioP1;P1;durP2;ratioP2;P2;SDS_P1;SDS_P2;PMS_P1;PMS_P2;Temp;Humidity;BMP_temperature;BMP_pressure;BME280_temperature;BME280_humidity;BME280_pressure;Samples;Min_cycle;Max_cycle;Signal;HPM_P1;HPM_P2
2021/05/18 00:01:03;;;;;;;21.10;10.20;;;;;;;;;;5050393;28;20908;-56
2021/05/18 00:03:29;;;;;;;28.97;11.97;;;;;;;;;;5051027;28;20413;-56
2021/05/18 00:05:57;;;;;;;18.60;11.47;;;;;;;;;;5054362;28;20397;-57
2021/05/18 00:08:24;;;;;;;18.53;10.60;;;;;;;;;;5054218;28;20459;-56
2021/05/18 00:13:41;;;;;;;25.00;11.87;;;;;;;;;;5054241;28;20435;-56
2021/05/18 00:16:09;;;;;;;23.97;12.13;;;;;;;;;;5054049;28;20889;-57
2021/05/18 00:18:36;;;;;;;20.87;12.70;;;;;;;;;;5054066;28;20999;-56
2021/05/18 00:21:02;;;;;;;16.80;12.27;;;;;;;;;;5053983;28;20903;-56
2021/05/18 00:23:28;;;;;;;20.23;12.33;;;;;;;;;;5053784;28;20393;-56
2021/05/18 00:25:54;;;;;;;31.53;12.37;;;;;;;;;;5053934;28;20408;-56
2021/05/18 00:28:20;;;;;;;26.20;14.63;;;;;;;;;;5053906;28;20461;-56
2021/05/18 00:30:46;;;;;;;17.70;11.90;;;;;;;;;;5053817;28;20393;-56
2021/05/18 00:33:17;;;;;;;19.33;11.90;;;;;;;;;;5053688;28;20416;-56
2021/05/18 00:35:44;;;;;;;27.90;14.50;;;;;;;;;;5053752;28;20963;-56
2021/05/18 00:38:10;;;;;;;20.03;11.30;;;;;;;;;;5053719;28;20432;-56
2021/05/18 00:40:36;;;;;;;17.10;11.70;;;;;;;;;;5053671;28;20405;-55
2021/05/18 00:43:02;;;;;;;27.20;12.63;;;;;;;;;;5053534;28;20401;-56
2021/05/18 00:45:28;;;;;;;16.80;11.10;;;;;;;;;;5053603;28;20497;-55
2021/05/18 00:47:54;;;;;;;17.87;11.40;;;;;;;;;;5053412;28;21043;-55
2021/05/18 00:50:20;;;;;;;17.97;11.30;;;;;;;;;;5053588;28;20393;-55
2021/05/18 00:52:46;;;;;;;18.40;11.20;;;;;;;;;;5053105;28;20398;-56
2021/05/18 00:55:22;;;;;;;22.00;13.00;;;;;;;;;;5053572;28;20955;-56
2021/05/18 01:00:33;;;;;;;21.80;12.33;;;;;;;;;;5053574;28;20861;-57
2021/05/18 01:02:59;;;;;;;19.83;10.67;;;;;;;;;;5050814;28;20452;-57
2021/05/18 01:06:19;;;;;;;26.90;14.07;;;;;;;;;;5052653;28;20441;-57
2021/05/18 01:08:12;;;;;;;22.70;11.40;;;;;;;;;;5052962;28;20704;-56
2021/05/18 01:10:38;;;;;;;16.30;10.60;;;;;;;;;;5053454;28;20601;-56
2021/05/18 01:13:04;;;;;;;18.60;11.77;;;;;;;;;;5053055;28;20408;-56
2021/05/18 01:15:30;;;;;;;19.90;12.27;;;;;;;;;;5052691;28;20762;-55
2021/05/18 01:17:56;;;;;;;24.27;13.37;;;;;;;;;;5052963;28;20433;-56
2021/05/18 01:20:22;;;;;;;25.83;13.70;;;;;;;;;;5053067;28;20823;-56
2021/05/18 01:22:48;;;;;;;22.80;13.70;;;;;;;;;;5052668;28;20638;-56
2021/05/18 01:25:16;;;;;;;23.80;11.80;;;;;;;;;;5052959;28;20409;-56
2021/05/18 01:27:41;;;;;;;22.83;12.03;;;;;;;;;;5052691;28;20417;-55
2021/05/18 01:30:08;;;;;;;22.13;14.33;;;;;;;;;;5052736;28;20462;-55
2021/05/18 01:32:35;;;;;;;21.10;11.97;;;;;;;;;;5052575;28;20402;-57
2021/05/18 01:35:01;;;;;;;24.10;12.47;;;;;;;;;;5052642;28;20406;-56
2021/05/18 01:37:27;;;;;;;30.37;12.83;;;;;;;;;;5052686;28;20471;-56
2021/05/18 01:40:02;;;;;;;29.23;13.00;;;;;;;;;;5052558;28;20429;-56
2021/05/18 01:45:24;;;;;;;19.60;12.43;;;;;;;;;;5052476;28;20552;-56
2021/05/18 01:47:55;;;;;;;26.60;11.87;;;;;;;;;;5052278;28;20456;-55
2021/05/18 01:50:23;;;;;;;27.57;13.50;;;;;;;;;;5052389;28;20485;-55
2021/05/18 01:52:49;;;;;;;24.43;11.53;;;;;;;;;;5050770;28;20888;-55
2021/05/18 01:55:20;;;;;;;29.93;13.70;;;;;;;;;;5052135;28;20877;-56
2021/05/18 01:57:47;;;;;;;23.70;12.10;;;;;;;;;;5052377;28;20425;-57
2021/05/18 02:00:14;;;;;;;23.93;11.90;;;;;;;;;;5052428;28;20772;-57
2021/05/18 02:02:41;;;;;;;21.40;12.03;;;;;;;;;;5051936;28;20476;-56
2021/05/18 02:05:09;;;;;;;31.60;14.23;;;;;;;;;;5052045;28;20815;-56
2021/05/18 02:07:36;;;;;;;21.23;13.17;;;;;;;;;;5051946;28;20428;-57
2021/05/18 02:10:04;;;;;;;22.57;12.67;;;;;;;;;;5052018;28;20962;-56
2021/05/18 02:12:30;;;;;;;20.00;13.90;;;;;;;;;;5051835;28;20471;-55
2021/05/18 02:15:02;;;;;;;20.33;13.37;;;;;;;;;;5052032;28;20762;-56
2021/05/18 02:17:33;;;;;;;21.03;13.27;;;;;;;;;;5051941;28;20424;-56
2021/05/18 02:25:30;;;;;;;28.30;14.27;;;;;;;;;;5051927;28;20504;-56
2021/05/18 02:27:57;;;;;;;27.13;14.03;;;;;;;;;;5050535;28;20461;-56
2021/05/18 02:30:24;;;;;;;28.03;14.30;;;;;;;;;;5051721;28;20489;-57
2021/05/18 02:32:50;;;;;;;27.03;14.50;;;;;;;;;;5051267;28;20896;-56
2021/05/18 02:35:17;;;;;;;29.37;14.23;;;;;;;;;;5051754;28;20411;-56
2021/05/18 02:37:44;;;;;;;25.93;15.37;;;;;;;;;;5051539;28;20417;-56
2021/05/18 02:40:16;;;;;;;26.83;14.27;;;;;;;;;;5051859;28;20404;-55
2021/05/18 02:42:42;;;;;;;24.50;14.90;;;;;;;;;;5051315;28;20455;-56
2021/05/18 02:45:18;;;;;;;24.73;15.33;;;;;;;;;;5051391;28;20455;-54
2021/05/18 02:50:29;;;;;;;30.60;16.33;;;;;;;;;;5051423;28;20923;-54
2021/05/18 02:52:55;;;;;;;26.37;17.00;;;;;;;;;;5050945;28;20397;-54
2021/05/18 02:55:29;;;;;;;27.73;15.87;;;;;;;;;;5051354;28;20828;-53
2021/05/18 02:57:56;;;;;;;29.17;15.43;;;;;;;;;;5051174;28;20563;-54
2021/05/18 03:00:23;;;;;;;26.70;16.67;;;;;;;;;;5051191;28;20410;-56
2021/05/18 03:02:50;;;;;;;28.90;18.03;;;;;;;;;;5050719;28;20401;-54
2021/05/18 03:05:17;;;;;;;28.17;16.20;;;;;;;;;;5051191;28;20401;-55
2021/05/18 03:07:43;;;;;;;28.13;17.20;;;;;;;;;;5050779;28;20566;-55
2021/05/18 03:10:09;;;;;;;41.03;18.50;;;;;;;;;;5050878;28;20400;-55
2021/05/18 03:12:35;;;;;;;26.90;16.87;;;;;;;;;;5050681;28;20916;-55
2021/05/18 03:15:02;;;;;;;29.70;16.90;;;;;;;;;;5050738;28;20393;-54
2021/05/18 03:17:30;;;;;;;35.87;18.83;;;;;;;;;;5050775;28;20838;-55
2021/05/18 03:19:56;;;;;;;35.03;17.30;;;;;;;;;;5050762;28;20455;-54
2021/05/18 03:22:22;;;;;;;34.63;17.73;;;;;;;;;;5050572;28;20413;-54
2021/05/18 03:24:48;;;;;;;31.67;19.10;;;;;;;;;;5050559;28;20413;-54
2021/05/18 03:27:14;;;;;;;35.37;20.50;;;;;;;;;;5050691;28;20935;-55
2021/05/18 03:29:42;;;;;;;28.93;17.83;;;;;;;;;;5049113;28;20456;-55
2021/05/18 03:34:52;;;;;;;32.80;18.67;;;;;;;;;;5050597;28;21071;-54
2021/05/18 03:39:47;;;;;;;29.50;18.33;;;;;;;;;;5050368;28;20464;-55
2021/05/18 03:42:20;;;;;;;35.20;18.90;;;;;;;;;;5050302;28;20397;-55
2021/05/18 04:17:21;;;;;;;32.67;20.43;;;;;;;;;;5050234;28;20420;-54
2021/05/18 04:19:56;;;;;;;33.13;20.63;;;;;;;;;;5050508;28;20427;-54
2021/05/18 04:22:37;;;;;;;33.87;21.27;;;;;;;;;;5050179;28;20744;-54
2021/05/18 04:39:02;;;;;;;29.03;19.73;;;;;;;;;;5050064;28;20404;-55
2021/05/18 04:53:02;;;;;;;31.17;19.43;;;;;;;;;;5053348;28;20393;-55
2021/05/18 05:01:02;;;;;;;31.63;17.40;;;;;;;;;;5053502;28;20393;-54
2021/05/18 05:06:16;;;;;;;24.83;17.23;;;;;;;;;;5053449;28;20447;-54
2021/05/18 05:16:43;;;;;;;24.13;14.57;;;;;;;;;;5053090;28;20436;-54
2021/05/18 05:19:09;;;;;;;23.53;14.93;;;;;;;;;;5053009;28;20404;-54
2021/05/18 05:21:35;;;;;;;20.27;14.43;;;;;;;;;;5052723;28;20415;-53
2021/05/18 05:24:01;;;;;;;17.27;13.77;;;;;;;;;;5052948;28;20389;-55
2021/05/18 05:26:29;;;;;;;19.00;13.13;;;;;;;;;;5052730;28;20402;-55
2021/05/18 05:28:55;;;;;;;20.17;13.10;;;;;;;;;;5052791;28;20475;-53
2021/05/18 05:31:21;;;;;;;18.77;12.17;;;;;;;;;;5052539;28;20389;-54
2021/05/18 05:33:47;;;;;;;16.57;11.90;;;;;;;;;;5052757;28;20402;-54
2021/05/18 05:36:13;;;;;;;17.50;10.67;;;;;;;;;;5052544;28;20409;-55
2021/05/18 05:38:39;;;;;;;15.50;9.60;;;;;;;;;;5052655;28;20567;-56
2021/05/18 05:41:05;;;;;;;13.70;9.73;;;;;;;;;;5052557;28;20818;-54
2021/05/18 05:43:31;;;;;;;12.70;10.20;;;;;;;;;;5052926;28;20412;-55
2021/05/18 05:45:57;;;;;;;15.67;11.13;;;;;;;;;;5052524;28;20431;-55
2021/05/18 05:48:24;;;;;;;18.33;10.10;;;;;;;;;;5052253;28;20484;-56
2021/05/18 05:50:50;;;;;;;12.57;10.47;;;;;;;;;;5052413;28;20823;-55
2021/05/18 05:53:16;;;;;;;15.37;10.10;;;;;;;;;;5052212;28;20977;-54
2021/05/18 05:55:42;;;;;;;20.20;11.90;;;;;;;;;;5052426;28;20469;-54
2021/05/18 05:58:08;;;;;;;15.70;10.00;;;;;;;;;;5052084;28;20423;-56
2021/05/18 06:00:34;;;;;;;12.93;10.17;;;;;;;;;;5052335;28;20485;-55
2021/05/18 06:03:00;;;;;;;14.40;10.83;;;;;;;;;;5051572;28;20449;-55
2021/05/18 06:05:26;;;;;;;14.90;11.60;;;;;;;;;;5051397;28;20935;-55
2021/05/18 06:07:56;;;;;;;12.60;10.13;;;;;;;;;;5051344;28;20428;-57
2021/05/18 06:10:41;;;;;;;13.97;10.53;;;;;;;;;;5051655;28;20936;-53
2021/05/18 06:48:36;;;;;;;21.10;16.03;;;;;;;;;;5051606;28;20465;-55
2021/05/18 06:51:02;;;;;;;25.97;17.27;;;;;;;;;;5051209;28;20406;-55
2021/05/18 06:53:28;;;;;;;20.47;16.80;;;;;;;;;;5051095;28;20491;-55
2021/05/18 06:55:56;;;;;;;29.30;19.03;;;;;;;;;;5051117;28;20568;-56
2021/05/18 07:01:04;;;;;;;24.40;18.47;;;;;;;;;;5051148;28;20417;-55
2021/05/18 07:03:36;;;;;;;27.70;18.70;;;;;;;;;;5050797;28;20404;-55
2021/05/18 07:11:13;;;;;;;23.87;17.53;;;;;;;;;;5050784;28;20397;-55
2021/05/18 07:13:39;;;;;;;27.20;17.30;;;;;;;;;;5050259;28;20402;-54
2021/05/18 07:16:05;;;;;;;21.93;16.83;;;;;;;;;;5050670;28;20405;-55
2021/05/18 07:18:31;;;;;;;24.20;16.40;;;;;;;;;;5050824;28;20421;-54
2021/05/18 07:20:57;;;;;;;21.97;17.07;;;;;;;;;;5050766;28;20476;-54
2021/05/18 07:23:26;;;;;;;20.73;16.40;;;;;;;;;;5050565;28;20407;-55
2021/05/18 07:25:52;;;;;;;21.10;14.87;;;;;;;;;;5050680;28;21077;-54
2021/05/18 07:28:20;;;;;;;26.53;18.27;;;;;;;;;;5050643;28;20447;-55
2021/05/18 07:30:46;;;;;;;21.87;15.77;;;;;;;;;;5050684;28;20415;-54
2021/05/18 07:33:12;;;;;;;24.33;14.90;;;;;;;;;;5050303;28;20412;-54
2021/05/18 07:35:38;;;;;;;25.97;16.23;;;;;;;;;;5050795;28;20770;-55
2021/05/18 07:38:05;;;;;;;25.70;17.80;;;;;;;;;;5050438;28;20500;-54
2021/05/18 07:40:32;;;;;;;30.67;19.43;;;;;;;;;;5050547;28;20411;-53
2021/05/18 07:42:58;;;;;;;30.27;19.37;;;;;;;;;;5050198;28;20398;-53
2021/05/18 07:45:28;;;;;;;30.40;19.20;;;;;;;;;;5050683;28;20862;-55
2021/05/18 07:48:13;;;;;;;30.00;19.40;;;;;;;;;;5048963;28;20540;-53
2021/05/18 07:50:52;;;;;;;29.57;20.40;;;;;;;;;;5050631;28;20798;-53
2021/05/18 08:05:18;;;;;;;33.23;21.90;;;;;;;;;;5050534;28;20412;-54
2021/05/18 08:07:12;;;;;;;37.20;20.60;;;;;;;;;;5041009;28;20440;-53
2021/05/18 08:10:21;;;;;;;31.33;22.00;;;;;;;;;;5050140;28;20811;-53
2021/05/18 08:12:27;;;;;;;31.40;21.20;;;;;;;;;;5044343;28;20492;-55
2021/05/18 08:15:18;;;;;;;36.23;21.67;;;;;;;;;;5050242;28;20860;-53
2021/05/18 08:17:54;;;;;;;38.83;22.37;;;;;;;;;;5050145;28;20475;-54
2021/05/18 08:20:33;;;;;;;35.07;21.17;;;;;;;;;;5050268;28;20392;-54
2021/05/18 08:46:32;;;;;;;35.90;21.67;;;;;;;;;;5050055;28;20879;-54
2021/05/18 10:36:01;;;;;;;14.23;12.67;;;;;;;;;;5051806;28;20463;-59
2021/05/18 10:38:44;;;;;;;21.10;14.27;;;;;;;;;;5051437;28;20478;-59
2021/05/18 10:41:17;;;;;;;25.50;12.13;;;;;;;;;;5051624;28;20472;-58
2021/05/18 10:43:44;;;;;;;10.70;8.90;;;;;;;;;;5051259;28;20404;-58
2021/05/18 10:46:22;;;;;;;10.00;6.10;;;;;;;;;;5050667;28;20402;-59
2021/05/18 10:48:53;;;;;;;7.17;6.20;;;;;;;;;;5050845;28;20490;-59
2021/05/18 10:51:36;;;;;;;7.13;6.33;;;;;;;;;;5050836;28;20409;-59
2021/05/18 10:54:05;;;;;;;7.57;6.87;;;;;;;;;;5052098;28;20395;-59
2021/05/18 10:56:33;;;;;;;11.00;6.90;;;;;;;;;;5050316;28;20945;-59
2021/05/18 10:58:59;;;;;;;7.67;6.53;;;;;;;;;;5050934;28;20483;-59
2021/05/18 11:01:25;;;;;;;6.73;6.13;;;;;;;;;;5050890;28;20849;-59
2021/05/18 11:03:51;;;;;;;9.00;7.27;;;;;;;;;;5051218;28;20416;-59
2021/05/18 11:06:17;;;;;;;9.30;8.17;;;;;;;;;;5050949;28;20398;-59
2021/05/18 11:08:43;;;;;;;10.83;7.30;;;;;;;;;;5050955;28;20520;-59
2021/05/18 11:11:25;;;;;;;11.50;8.53;;;;;;;;;;5066337;28;20464;-59
2021/05/18 11:13:54;;;;;;;9.43;7.47;;;;;;;;;;5051190;28;20405;-59
2021/05/18 11:16:20;;;;;;;10.07;8.07;;;;;;;;;;5051100;28;20402;-59
2021/05/18 11:18:49;;;;;;;11.30;8.90;;;;;;;;;;5050651;28;20425;-59
2021/05/18 11:21:15;;;;;;;11.27;8.53;;;;;;;;;;5050725;28;20953;-59
2021/05/18 11:23:42;;;;;;;10.30;9.20;;;;;;;;;;5050710;28;20914;-59
2021/05/18 11:26:09;;;;;;;12.93;8.13;;;;;;;;;;5050904;28;20408;-59
2021/05/18 11:28:40;;;;;;;19.43;8.90;;;;;;;;;;5050536;28;20461;-58
2021/05/18 11:31:17;;;;;;;11.17;8.63;;;;;;;;;;5050990;28;20488;-58
2021/05/18 11:33:47;;;;;;;16.43;8.47;;;;;;;;;;5050707;28;20512;-59
2021/05/18 11:36:16;;;;;;;9.43;8.30;;;;;;;;;;5050918;28;20443;-59
2021/05/18 11:38:48;;;;;;;10.80;8.07;;;;;;;;;;5050442;28;20905;-58
2021/05/18 11:41:21;;;;;;;8.30;7.00;;;;;;;;;;5050544;28;20411;-59
2021/05/18 11:43:51;;;;;;;9.13;8.23;;;;;;;;;;5050601;28;20413;-58
2021/05/18 11:46:17;;;;;;;8.53;7.63;;;;;;;;;;5050390;28;20411;-59
2021/05/18 11:48:53;;;;;;;9.50;8.60;;;;;;;;;;5050457;28;20461;-58
2021/05/18 11:51:19;;;;;;;8.80;7.57;;;;;;;;;;5050247;28;20413;-59
2021/05/18 11:53:49;;;;;;;9.10;8.20;;;;;;;;;;5050431;28;20404;-59
2021/05/18 11:56:19;;;;;;;8.63;6.53;;;;;;;;;;5050336;28;20492;-59
2021/05/18 11:58:45;;;;;;;7.87;6.60;;;;;;;;;;5050579;28;20831;-59
2021/05/18 12:01:11;;;;;;;6.80;6.20;;;;;;;;;;5054237;28;20401;-59
2021/05/18 12:03:37;;;;;;;7.30;6.60;;;;;;;;;;5054141;28;20411;-60
2021/05/18 12:06:04;;;;;;;9.67;6.70;;;;;;;;;;5054408;28;20484;-60
2021/05/18 12:08:32;;;;;;;6.80;6.20;;;;;;;;;;5053071;28;20452;-59
2021/05/18 12:11:11;;;;;;;6.40;5.60;;;;;;;;;;5053030;28;20413;-59
2021/05/18 12:13:37;;;;;;;6.97;5.60;;;;;;;;;;5053987;28;20401;-60
2021/05/18 12:16:08;;;;;;;7.93;7.23;;;;;;;;;;5054095;28;20413;-59
2021/05/18 12:18:35;;;;;;;7.00;6.30;;;;;;;;;;5053910;28;20845;-60
2021/05/18 12:21:12;;;;;;;7.20;6.20;;;;;;;;;;5054165;28;20845;-60
2021/05/18 12:23:38;;;;;;;6.53;6.03;;;;;;;;;;5053929;28;20384;-59
2021/05/18 12:26:11;;;;;;;7.00;6.37;;;;;;;;;;5054038;28;20391;-60
2021/05/18 12:28:37;;;;;;;9.10;7.27;;;;;;;;;;5053512;28;20456;-60
2021/05/18 12:31:03;;;;;;;7.90;7.10;;;;;;;;;;5053915;28;20401;-60
2021/05/18 12:33:38;;;;;;;7.27;6.67;;;;;;;;;;5053637;28;20429;-60
2021/05/18 12:36:08;;;;;;;10.27;7.00;;;;;;;;;;5053811;28;20488;-61
2021/05/18 12:38:34;;;;;;;8.17;7.33;;;;;;;;;;5053708;28;20891;-61
2021/05/18 12:41:06;;;;;;;8.07;7.37;;;;;;;;;;5053556;28;20497;-60
2021/05/18 12:43:42;;;;;;;8.07;6.83;;;;;;;;;;5053518;28;20409;-61
2021/05/18 12:46:09;;;;;;;6.63;6.03;;;;;;;;;;5053478;28;20807;-60
2021/05/18 12:48:35;;;;;;;6.40;5.90;;;;;;;;;;5053525;28;20448;-61
2021/05/18 12:51:13;;;;;;;7.53;6.83;;;;;;;;;;5052248;28;20831;-61
2021/05/18 12:53:39;;;;;;;8.13;7.40;;;;;;;;;;5053319;28;20482;-61
2021/05/18 12:56:05;;;;;;;7.43;6.77;;;;;;;;;;5053357;28;20886;-62
2021/05/18 12:58:35;;;;;;;8.23;7.43;;;;;;;;;;5053389;28;20765;-61
2021/05/18 13:01:18;;;;;;;8.43;7.60;;;;;;;;;;5053420;28;20398;-60
2021/05/18 13:03:45;;;;;;;7.47;6.73;;;;;;;;;;5053163;28;20393;-62
2021/05/18 13:06:12;;;;;;;7.43;6.83;;;;;;;;;;5053333;28;20500;-62
2021/05/18 13:08:39;;;;;;;7.43;6.77;;;;;;;;;;5053024;28;20456;-61
2021/05/18 13:13:40;;;;;;;9.27;7.23;;;;;;;;;;5053152;28;20413;-61
2021/05/18 13:16:15;;;;;;;7.77;7.07;;;;;;;;;;5053305;28;20766;-61
2021/05/18 13:19:01;;;;;;;9.97;7.87;;;;;;;;;;5053151;28;20428;-61
2021/05/18 13:21:27;;;;;;;10.27;7.20;;;;;;;;;;5053221;28;20894;-61
2021/05/18 13:24:00;;;;;;;8.57;7.70;;;;;;;;;;5052946;28;20397;-60
2021/05/18 13:26:27;;;;;;;8.47;7.63;;;;;;;;;;5052969;28;20435;-60
2021/05/18 13:29:18;;;;;;;17.50;8.50;;;;;;;;;;5051445;28;20459;-61
2021/05/18 13:31:45;;;;;;;7.90;5.30;;;;;;;;;;5045457;28;20829;-60
2021/05/18 13:34:11;;;;;;;5.03;4.63;;;;;;;;;;5051944;28;20392;-59
2021/05/18 13:36:37;;;;;;;6.27;5.03;;;;;;;;;;5052583;28;20397;-59
2021/05/18 13:39:08;;;;;;;19.80;5.67;;;;;;;;;;5052728;28;20811;-60
2021/05/18 13:41:34;;;;;;;8.33;5.60;;;;;;;;;;5052248;28;20412;-60
2021/05/18 13:44:01;;;;;;;12.33;6.70;;;;;;;;;;5052518;28;20488;-59
2021/05/18 13:46:27;;;;;;;6.47;5.87;;;;;;;;;;5052230;28;20834;-58
2021/05/18 13:48:53;;;;;;;7.40;6.70;;;;;;;;;;5052460;28;20445;-60
2021/05/18 13:51:19;;;;;;;14.00;10.07;;;;;;;;;;5052347;28;20392;-60
2021/05/18 13:53:45;;;;;;;10.53;8.33;;;;;;;;;;5052231;28;20488;-60
2021/05/18 13:56:12;;;;;;;8.20;7.40;;;;;;;;;;5052339;28;20477;-60
2021/05/18 13:58:38;;;;;;;10.37;8.93;;;;;;;;;;5052094;28;20904;-60
2021/05/18 14:01:05;;;;;;;13.07;8.07;;;;;;;;;;5052506;28;20400;-61
2021/05/18 14:03:31;;;;;;;8.07;7.27;;;;;;;;;;5051769;28;20430;-60
2021/05/18 14:05:57;;;;;;;9.17;8.37;;;;;;;;;;5050791;28;20423;-59
2021/05/18 14:08:36;;;;;;;18.33;8.03;;;;;;;;;;5051791;28;20855;-60
2021/05/18 14:11:05;;;;;;;8.30;7.60;;;;;;;;;;5052192;28;20400;-60
2021/05/18 14:13:33;;;;;;;8.07;7.30;;;;;;;;;;5051776;28;20398;-61
2021/05/18 14:15:59;;;;;;;11.43;9.10;;;;;;;;;;5051866;28;20820;-61
2021/05/18 14:18:25;;;;;;;8.83;8.03;;;;;;;;;;5052015;28;20417;-61
2021/05/18 14:20:52;;;;;;;9.07;7.60;;;;;;;;;;5051725;28;20843;-61
2021/05/18 14:23:23;;;;;;;8.53;7.63;;;;;;;;;;5051488;28;20396;-62
2021/05/18 14:25:49;;;;;;;7.97;7.17;;;;;;;;;;5051726;28;20405;-61
2021/05/18 14:28:15;;;;;;;7.50;5.93;;;;;;;;;;5051627;28;20455;-61
2021/05/18 14:30:42;;;;;;;6.57;6.03;;;;;;;;;;5051535;28;20409;-61
2021/05/18 14:33:08;;;;;;;6.67;6.07;;;;;;;;;;5051504;28;20405;-62
2021/05/18 14:35:34;;;;;;;6.17;5.67;;;;;;;;;;5051500;28;20368;-62
2021/05/18 14:54:48;;;;;;;7.00;6.37;;;;;;;;;;5051133;28;20379;-62
2021/05/18 14:57:14;;;;;;;7.10;6.40;;;;;;;;;;5051291;28;20380;-62
2021/05/18 14:59:40;;;;;;;7.50;6.80;;;;;;;;;;5051139;28;20411;-62
2021/05/18 15:02:06;;;;;;;7.43;6.80;;;;;;;;;;5051133;28;20403;-63
2021/05/18 15:04:32;;;;;;;7.60;7.00;;;;;;;;;;5051108;28;20470;-61
2021/05/18 15:06:59;;;;;;;7.73;7.03;;;;;;;;;;5051185;28;21023;-62
2021/05/18 15:09:25;;;;;;;6.93;6.30;;;;;;;;;;5051103;28;20431;-62
2021/05/18 15:11:51;;;;;;;9.30;7.43;;;;;;;;;;5050816;28;20422;-63
2021/05/18 15:14:17;;;;;;;7.23;6.60;;;;;;;;;;5049660;28;20413;-63
2021/05/18 15:16:43;;;;;;;6.80;6.20;;;;;;;;;;5050801;28;20376;-63
2021/05/18 15:19:12;;;;;;;5.90;5.50;;;;;;;;;;5050956;28;20859;-62
2021/05/18 15:21:38;;;;;;;6.93;5.93;;;;;;;;;;5050512;28;20982;-62
2021/05/18 15:24:05;;;;;;;6.30;5.70;;;;;;;;;;5050798;28;20408;-61
2021/05/18 15:26:30;;;;;;;7.40;6.80;;;;;;;;;;5050513;28;20765;-61
2021/05/18 15:28:56;;;;;;;7.70;7.07;;;;;;;;;;5050663;28;20934;-61
2021/05/18 15:31:23;;;;;;;7.13;6.40;;;;;;;;;;5050551;28;20830;-61
2021/05/18 15:33:49;;;;;;;11.77;7.37;;;;;;;;;;5049899;28;20397;-61
2021/05/18 15:36:15;;;;;;;13.57;6.40;;;;;;;;;;5050655;28;20404;-62
2021/05/18 15:38:42;;;;;;;14.07;6.40;;;;;;;;;;5050449;28;20818;-61
2021/05/18 15:41:08;;;;;;;4.87;3.70;;;;;;;;;;5050599;28;20408;-61
2021/05/18 15:43:35;;;;;;;8.37;3.50;;;;;;;;;;5050197;28;20436;-60
2021/05/18 15:46:02;;;;;;;7.87;3.10;;;;;;;;;;5050558;28;20622;-61
2021/05/18 15:48:28;;;;;;;3.67;2.60;;;;;;;;;;5050196;28;20474;-60
2021/05/18 15:50:54;;;;;;;3.03;2.83;;;;;;;;;;5050422;28;20399;-60
2021/05/18 15:53:20;;;;;;;3.80;3.30;;;;;;;;;;5050221;28;20492;-60
2021/05/18 15:55:46;;;;;;;3.47;3.20;;;;;;;;;;5050245;28;20433;-60
2021/05/18 15:58:12;;;;;;;4.93;2.80;;;;;;;;;;5050318;28;20419;-61
2021/05/18 16:00:38;;;;;;;2.60;2.40;;;;;;;;;;5050299;28;20766;-61
2021/05/18 16:03:04;;;;;;;2.87;2.67;;;;;;;;;;5049969;28;20401;-60
2021/05/18 16:05:30;;;;;;;3.50;3.30;;;;;;;;;;5050268;28;20404;-60
2021/05/18 16:10:52;;;;;;;5.33;3.40;;;;;;;;;;5030156;28;20420;-61
2021/05/18 16:13:18;;;;;;;3.40;3.10;;;;;;;;;;5049878;28;20390;-61
2021/05/18 16:15:44;;;;;;;2.80;2.60;;;;;;;;;;5050068;28;20401;-61
2021/05/18 16:18:09;;;;;;;3.57;2.83;;;;;;;;;;5050038;28;20421;-60
2021/05/18 16:20:35;;;;;;;3.27;2.47;;;;;;;;;;5050195;28;20403;-61
2021/05/18 16:23:01;;;;;;;2.83;2.47;;;;;;;;;;5049811;28;20806;-62
2021/05/18 16:25:27;;;;;;;2.73;2.13;;;;;;;;;;5050117;28;20446;-60
2021/05/18 16:27:53;;;;;;;4.23;2.20;;;;;;;;;;5049792;28;20479;-60
2021/05/18 16:30:20;;;;;;;2.63;2.50;;;;;;;;;;5049966;28;20452;-60
2021/05/18 16:32:46;;;;;;;3.00;2.40;;;;;;;;;;5049876;28;20393;-61
2021/05/18 16:35:12;;;;;;;3.50;2.20;;;;;;;;;;5049950;28;20407;-60
2021/05/18 16:37:39;;;;;;;4.77;2.63;;;;;;;;;;5048727;28;20454;-61
2021/05/18 16:40:06;;;;;;;3.60;2.87;;;;;;;;;;5049915;28;20529;-62
2021/05/18 16:42:34;;;;;;;2.40;2.20;;;;;;;;;;5049425;28;21094;-61
2021/05/18 16:45:00;;;;;;;3.67;2.87;;;;;;;;;;5049853;28;20831;-61
2021/05/18 16:47:26;;;;;;;3.77;3.27;;;;;;;;;;5052195;28;20823;-61
2021/05/18 16:49:52;;;;;;;4.53;2.80;;;;;;;;;;5053404;28;20456;-61
2021/05/18 16:52:18;;;;;;;4.30;3.33;;;;;;;;;;5053406;28;20408;-60
2021/05/18 16:54:44;;;;;;;5.33;3.57;;;;;;;;;;5053740;28;20412;-60
2021/05/18 16:57:10;;;;;;;3.93;3.20;;;;;;;;;;5053365;28;20502;-61
2021/05/18 16:59:36;;;;;;;3.80;2.60;;;;;;;;;;5052845;28;20512;-61
2021/05/18 17:02:02;;;;;;;4.83;3.27;;;;;;;;;;5053345;28;20414;-60
2021/05/18 17:04:28;;;;;;;5.17;3.10;;;;;;;;;;5053405;28;20756;-60
2021/05/18 17:06:55;;;;;;;4.33;2.50;;;;;;;;;;5053056;28;20435;-60
2021/05/18 17:09:21;;;;;;;3.27;2.40;;;;;;;;;;5053282;28;20451;-61
2021/05/18 17:11:47;;;;;;;2.83;2.47;;;;;;;;;;5052880;28;20436;-61
2021/05/18 17:14:13;;;;;;;2.40;2.20;;;;;;;;;;5053106;28;20487;-60
2021/05/18 17:16:39;;;;;;;2.83;2.63;;;;;;;;;;5053165;28;20503;-61
2021/05/18 17:19:06;;;;;;;2.77;2.50;;;;;;;;;;5053019;28;20458;-61
2021/05/18 17:21:32;;;;;;;2.63;2.43;;;;;;;;;;5053037;28;20501;-62
2021/05/18 17:23:58;;;;;;;3.20;2.70;;;;;;;;;;5052935;28;20440;-62
2021/05/18 17:26:25;;;;;;;2.87;2.67;;;;;;;;;;5052801;28;20410;-62
2021/05/18 17:28:51;;;;;;;3.53;2.70;;;;;;;;;;5052761;28;20923;-61
2021/05/18 17:31:17;;;;;;;5.80;2.83;;;;;;;;;;5051473;28;20409;-62
2021/05/18 17:33:44;;;;;;;3.00;2.80;;;;;;;;;;5052813;28;20409;-62
2021/05/18 17:36:10;;;;;;;3.27;2.97;;;;;;;;;;5052679;28;20540;-61
2021/05/18 17:38:36;;;;;;;2.70;2.50;;;;;;;;;;5052626;28;20433;-61
2021/05/18 17:41:04;;;;;;;3.20;2.83;;;;;;;;;;5052388;28;20401;-62
2021/05/18 17:43:31;;;;;;;3.33;2.57;;;;;;;;;;5052390;28;20441;-61
2021/05/18 17:46:02;;;;;;;4.60;2.97;;;;;;;;;;5052541;28;20401;-62
2021/05/18 17:48:28;;;;;;;2.67;2.57;;;;;;;;;;5052493;28;20465;-61
2021/05/18 17:50:54;;;;;;;2.93;2.73;;;;;;;;;;5051038;28;20424;-61
2021/05/18 17:53:20;;;;;;;6.47;3.00;;;;;;;;;;5052162;28;20405;-61
2021/05/18 17:55:46;;;;;;;3.93;2.83;;;;;;;;;;5052806;28;20409;-60
2021/05/18 17:58:13;;;;;;;3.20;3.00;;;;;;;;;;5051759;28;20507;-61
2021/05/18 18:00:40;;;;;;;5.90;4.23;;;;;;;;;;5052366;28;20409;-60
2021/05/18 18:03:06;;;;;;;5.07;3.60;;;;;;;;;;5051834;28;20409;-61
2021/05/18 18:05:32;;;;;;;3.90;3.57;;;;;;;;;;5052276;28;20404;-62
2021/05/18 18:07:58;;;;;;;4.40;4.00;;;;;;;;;;5050517;28;20485;-62
2021/05/18 18:10:24;;;;;;;6.73;6.03;;;;;;;;;;5050742;28;20474;-62
2021/05/18 18:12:51;;;;;;;6.10;5.50;;;;;;;;;;5051914;28;20406;-62
2021/05/18 18:15:17;;;;;;;5.67;5.17;;;;;;;;;;5050630;28;20968;-62
2021/05/18 18:17:43;;;;;;;4.30;3.77;;;;;;;;;;5051936;28;20515;-61
2021/05/18 18:20:11;;;;;;;6.13;3.83;;;;;;;;;;5051868;28;20416;-61
2021/05/18 18:22:38;;;;;;;4.13;3.70;;;;;;;;;;5051568;28;20896;-60
2021/05/18 18:25:04;;;;;;;4.30;4.00;;;;;;;;;;5051665;28;20922;-60
2021/05/18 18:27:30;;;;;;;3.90;3.50;;;;;;;;;;5051645;28;20471;-62
2021/05/18 18:29:57;;;;;;;3.93;3.60;;;;;;;;;;5051578;28;20459;-61
2021/05/18 18:32:23;;;;;;;3.93;3.73;;;;;;;;;;5051612;28;20399;-61
2021/05/18 18:34:49;;;;;;;6.40;4.33;;;;;;;;;;5051790;28;20407;-61
2021/05/18 18:37:16;;;;;;;4.53;4.13;;;;;;;;;;5051513;28;20420;-61
2021/05/18 18:39:42;;;;;;;4.30;4.00;;;;;;;;;;5051931;28;20829;-62
2021/05/18 18:42:07;;;;;;;4.60;4.30;;;;;;;;;;5051535;28;20482;-62
2021/05/18 18:44:33;;;;;;;3.77;3.57;;;;;;;;;;5051638;28;20409;-61
2021/05/18 18:46:59;;;;;;;4.50;4.10;;;;;;;;;;5051217;28;20447;-62
2021/05/18 18:49:27;;;;;;;3.80;3.50;;;;;;;;;;5051445;28;20452;-62
2021/05/18 18:51:55;;;;;;;4.40;4.00;;;;;;;;;;5051120;28;20531;-61
2021/05/18 18:54:21;;;;;;;4.97;4.57;;;;;;;;;;5051254;28;20911;-61
2021/05/18 18:56:47;;;;;;;4.83;4.50;;;;;;;;;;5051356;28;20492;-60
2021/05/18 18:59:15;;;;;;;5.97;5.37;;;;;;;;;;5051253;28;20545;-61
2021/05/18 19:01:54;;;;;;;5.67;5.27;;;;;;;;;;5051175;28;20405;-61
2021/05/18 19:04:25;;;;;;;6.30;5.70;;;;;;;;;;5050975;28;20402;-62
2021/05/18 19:07:01;;;;;;;6.40;5.80;;;;;;;;;;5051201;28;20563;-61
2021/05/18 19:14:38;;;;;;;7.73;6.00;;;;;;;;;;5050794;28;20396;-62
2021/05/18 19:17:03;;;;;;;6.80;6.30;;;;;;;;;;5050845;28;20428;-61
2021/05/18 19:19:29;;;;;;;6.73;6.00;;;;;;;;;;5050963;28;20410;-61
2021/05/18 19:21:55;;;;;;;6.77;6.23;;;;;;;;;;5050615;28;20482;-62
2021/05/18 19:24:21;;;;;;;7.43;6.00;;;;;;;;;;5050714;28;20408;-61
2021/05/18 19:26:48;;;;;;;6.70;6.10;;;;;;;;;;5050580;28;20480;-61
2021/05/18 19:29:14;;;;;;;6.03;5.63;;;;;;;;;;5049521;28;20590;-60
2021/05/18 19:31:40;;;;;;;6.17;5.67;;;;;;;;;;5050490;28;20412;-60
2021/05/18 19:34:09;;;;;;;5.60;5.20;;;;;;;;;;5050697;28;20407;-60
2021/05/18 19:52:21;;;;;;;7.47;6.87;;;;;;;;;;5049933;28;20404;-62
2021/05/18 19:54:49;;;;;;;7.60;6.90;;;;;;;;;;5050488;28;20487;-61
2021/05/18 19:57:29;;;;;;;9.27;7.90;;;;;;;;;;5050492;28;20482;-61
2021/05/18 20:11:15;;;;;;;9.23;8.43;;;;;;;;;;5050351;28;20430;-62